Skip to main content

Madeira, Santo da Serra

ID 1210975 · 32.7259, -16.8168 map

Latest reading · 2026-05-09 19:00 (Europe/Lisbon)

Temperature
12.9 °C
Humidity
90 %
Pressure
Precipitation
0.1 mm
Radiation
104 W/m²
Wind speed
Wind direction
No wind

24-hour history

Time (Europe/Lisbon) Temp Humidity Pressure Rain Wind Dir
2026-05-09 19:00 12.9 °C 90 % 0.1 mm
2026-05-09 18:00 13.3 °C 90 % 0.1 mm
2026-05-09 17:00 13.8 °C 89 % 0.1 mm
2026-05-09 16:00 14.0 °C 85 % 0.1 mm
2026-05-09 15:00 14.7 °C 81 % 0.1 mm
2026-05-09 14:00 14.5 °C 84 % 0.0 mm
2026-05-09 13:00 14.1 °C 85 % 0.1 mm
2026-05-09 12:00 13.7 °C 87 % 0.1 mm
2026-05-09 11:00 13.9 °C 84 % 0.0 mm
2026-05-09 10:00 13.7 °C 87 % 0.1 mm
2026-05-09 09:00 10.7 °C 97 % 0.0 mm
2026-05-09 08:00 9.1 °C 98 % 0.1 mm
2026-05-09 07:00 9.4 °C 97 % 0.1 mm
2026-05-09 06:00 9.8 °C 96 % 0.0 mm
2026-05-09 05:00 9.9 °C 95 % 0.1 mm
2026-05-09 04:00 9.7 °C 94 % 0.1 mm
2026-05-09 03:00 9.7 °C 92 % 0.1 mm
2026-05-09 02:00 9.7 °C 93 % 0.1 mm
2026-05-09 01:00 10.0 °C 92 % 0.1 mm
2026-05-09 00:00 10.4 °C 89 % 0.1 mm
2026-05-08 23:00 10.7 °C 90 % 0.2 mm
2026-05-08 22:00 12.0 °C 87 % 0.1 mm
2026-05-08 21:00 12.5 °C 82 % 0.2 mm
2026-05-08 20:00 13.4 °C 76 % 0.2 mm